createdAt,value
2022-09-07T00:00:07.000Z,220.0
2022-09-07T00:00:42.000Z,235.0
2022-09-07T00:01:12.000Z,232.0
2022-09-07T00:01:47.000Z,229.0
2022-09-07T00:02:17.000Z,226.0
2022-09-07T00:02:48.000Z,236.0
2022-09-07T00:03:22.000Z,192.0
2022-09-07T00:03:45.000Z,221.0
2022-09-07T00:04:07.000Z,207.0
2022-09-07T00:04:42.000Z,275.0
2022-09-07T00:05:22.000Z,233.0
2022-09-07T00:05:47.000Z,341.0
2022-09-07T00:06:17.000Z,236.0
2022-09-07T00:06:47.000Z,103.0
2022-09-07T00:07:23.000Z,254.0
2022-09-07T00:07:44.000Z,218.0
2022-09-07T00:08:07.000Z,173.0
2022-09-07T00:08:42.000Z,223.0
2022-09-07T00:09:12.000Z,231.0
2022-09-07T00:09:48.000Z,272.0
2022-09-07T00:10:17.000Z,231.0
2022-09-07T00:10:48.000Z,183.0
2022-09-07T00:11:22.000Z,318.0
2022-09-07T00:11:44.000Z,234.0
2022-09-07T00:12:07.000Z,306.0
2022-09-07T00:12:28.000Z,203.0
2022-09-07T00:12:57.000Z,249.0
2022-09-07T00:13:27.000Z,237.0
2022-09-07T00:14:03.000Z,203.0
2022-09-07T00:14:33.000Z,278.0
2022-09-07T00:15:03.000Z,241.0
2022-09-07T00:15:38.000Z,225.0
2022-09-07T00:16:07.000Z,268.0
2022-09-07T00:16:27.000Z,190.0
2022-09-07T00:16:44.000Z,233.0
2022-09-07T00:17:11.000Z,214.0
2022-09-07T00:17:48.000Z,222.0
2022-09-07T00:18:15.000Z,241.0
2022-09-07T00:18:42.000Z,213.0
2022-09-07T00:19:08.000Z,280.0
2022-09-07T00:19:35.000Z,249.0
2022-09-07T00:20:12.000Z,187.0
2022-09-07T00:20:52.000Z,193.0
2022-09-07T00:21:15.000Z,229.0
2022-09-07T00:21:43.000Z,279.0
2022-09-07T00:22:12.000Z,287.0
2022-09-07T00:22:42.000Z,341.0
2022-09-07T00:23:09.000Z,276.0
2022-09-07T00:23:35.000Z,218.0
2022-09-07T00:23:53.000Z,174.0
2022-09-07T00:24:28.000Z,23.0
2022-09-07T00:24:58.000Z,278.0
2022-09-07T00:25:27.000Z,229.0
2022-09-07T00:25:48.000Z,229.0
2022-09-07T00:26:17.000Z,229.0
2022-09-07T00:26:47.000Z,193.0
2022-09-07T00:27:22.000Z,208.0
2022-09-07T00:27:44.000Z,258.0
2022-09-07T00:28:07.000Z,272.0
2022-09-07T00:28:28.000Z,204.0
2022-09-07T00:28:58.000Z,263.0
2022-09-07T00:29:27.000Z,157.0
2022-09-07T00:29:47.000Z,157.0
2022-09-07T00:30:17.000Z,265.0
2022-09-07T00:30:48.000Z,221.0
2022-09-07T00:31:03.000Z,165.0
2022-09-07T00:31:38.000Z,229.0
2022-09-07T00:32:07.000Z,231.0
2022-09-07T00:32:28.000Z,299.0
2022-09-07T00:32:56.000Z,192.0
2022-09-07T00:33:27.000Z,180.0
2022-09-07T00:34:02.000Z,245.0
2022-09-07T00:34:32.000Z,187.0
2022-09-07T00:35:04.000Z,180.0
2022-09-07T00:35:35.000Z,217.0
2022-09-07T00:36:02.000Z,228.0
2022-09-07T00:36:29.000Z,228.0
2022-09-07T00:36:52.000Z,197.0
2022-09-07T00:37:15.000Z,217.0
2022-09-07T00:37:43.000Z,219.0
2022-09-07T00:38:12.000Z,215.0
2022-09-07T00:38:42.000Z,214.0
2022-09-07T00:39:09.000Z,232.0
2022-09-07T00:39:35.000Z,186.0
2022-09-07T00:40:02.000Z,242.0
2022-09-07T00:40:29.000Z,221.0
2022-09-07T00:40:57.000Z,171.0
2022-09-07T00:41:33.000Z,237.0
2022-09-07T00:42:03.000Z,242.0
2022-09-07T00:42:31.000Z,229.0
2022-09-07T00:42:48.000Z,239.0
2022-09-07T00:43:23.000Z,310.0
2022-09-07T00:43:44.000Z,197.0
2022-09-07T00:44:07.000Z,244.0
2022-09-07T00:44:28.000Z,242.0
2022-09-07T00:44:57.000Z,171.0
2022-09-07T00:45:27.000Z,234.0
2022-09-07T00:46:02.000Z,193.0
2022-09-07T00:46:32.000Z,157.0
2022-09-07T00:46:48.000Z,281.0
2022-09-07T00:47:22.000Z,240.0
2022-09-07T00:47:44.000Z,32.0
2022-09-07T00:48:07.000Z,225.0
2022-09-07T00:48:27.000Z,259.0
2022-09-07T00:48:57.000Z,309.0
2022-09-07T00:49:27.000Z,205.0
2022-09-07T00:50:02.000Z,245.0
2022-09-07T00:50:32.000Z,196.0
2022-09-07T00:51:03.000Z,315.0
2022-09-07T00:51:22.000Z,263.0
2022-09-07T00:51:44.000Z,240.0
2022-09-07T00:52:07.000Z,152.0
2022-09-07T00:52:28.000Z,235.0
2022-09-07T00:52:43.000Z,221.0
2022-09-07T00:53:12.000Z,194.0
2022-09-07T00:53:47.000Z,120.0
2022-09-07T00:54:17.000Z,205.0
2022-09-07T00:54:48.000Z,241.0
2022-09-07T00:55:03.000Z,208.0
2022-09-07T00:55:23.000Z,230.0
2022-09-07T00:55:44.000Z,202.0
2022-09-07T00:56:08.000Z,204.0
2022-09-07T00:56:27.000Z,225.0
2022-09-07T00:56:56.000Z,246.0
2022-09-07T00:57:13.000Z,238.0
2022-09-07T00:57:47.000Z,208.0
2022-09-07T00:58:18.000Z,214.0
2022-09-07T00:58:47.000Z,254.0
2022-09-07T00:59:03.000Z,206.0
2022-09-07T00:59:23.000Z,276.0
2022-09-07T00:59:44.000Z,199.0
2022-09-07T01:00:07.000Z,161.0
2022-09-07T01:00:27.000Z,175.0
2022-09-07T01:00:57.000Z,234.0
2022-09-07T01:01:28.000Z,237.0
2022-09-07T01:02:02.000Z,223.0
2022-09-07T01:02:32.000Z,250.0
2022-09-07T01:03:03.000Z,226.0
2022-09-07T01:03:37.000Z,217.0
2022-09-07T01:04:07.000Z,225.0
2022-09-07T01:04:42.000Z,208.0
2022-09-07T01:05:22.000Z,188.0
2022-09-07T01:05:49.000Z,219.0
2022-09-07T01:06:19.000Z,198.0
2022-09-07T01:06:43.000Z,191.0
2022-09-07T01:07:08.000Z,239.0
2022-09-07T01:07:35.000Z,227.0
2022-09-07T01:08:12.000Z,281.0
2022-09-07T01:08:52.000Z,158.0
2022-09-07T01:09:15.000Z,199.0
2022-09-07T01:09:43.000Z,274.0
2022-09-07T01:10:17.000Z,303.0
2022-09-07T01:10:47.000Z,198.0
2022-09-07T01:11:22.000Z,189.0
2022-09-07T01:11:44.000Z,243.0
2022-09-07T01:12:07.000Z,237.0
2022-09-07T01:12:42.000Z,175.0
2022-09-07T01:13:12.000Z,282.0
2022-09-07T01:13:48.000Z,217.0
2022-09-07T01:14:18.000Z,158.0
2022-09-07T01:14:48.000Z,242.0
2022-09-07T01:15:24.000Z,154.0
2022-09-07T01:15:44.000Z,218.0
2022-09-07T01:16:07.000Z,243.0
2022-09-07T01:16:43.000Z,212.0
2022-09-07T01:17:12.000Z,212.0
2022-09-07T01:17:48.000Z,207.0
2022-09-07T01:18:17.000Z,214.0
2022-09-07T01:18:48.000Z,220.0
2022-09-07T01:19:22.000Z,246.0
2022-09-07T01:19:44.000Z,224.0
2022-09-07T01:20:08.000Z,235.0
2022-09-07T01:20:42.000Z,266.0
2022-09-07T01:21:13.000Z,202.0
2022-09-07T01:21:47.000Z,193.0
2022-09-07T01:22:18.000Z,190.0
2022-09-07T01:22:43.000Z,231.0
2022-09-07T01:23:09.000Z,164.0
2022-09-07T01:23:37.000Z,216.0
2022-09-07T01:24:07.000Z,198.0
2022-09-07T01:24:43.000Z,250.0
2022-09-07T01:25:12.000Z,184.0
2022-09-07T01:25:48.000Z,189.0
2022-09-07T01:26:17.000Z,212.0
2022-09-07T01:26:47.000Z,193.0
2022-09-07T01:27:23.000Z,236.0
2022-09-07T01:27:44.000Z,233.0
2022-09-07T01:28:07.000Z,232.0
2022-09-07T01:28:43.000Z,208.0
2022-09-07T01:29:12.000Z,179.0
2022-09-07T01:29:48.000Z,191.0
2022-09-07T01:30:17.000Z,194.0
2022-09-07T01:30:47.000Z,271.0
2022-09-07T01:31:23.000Z,181.0
2022-09-07T01:31:44.000Z,225.0
2022-09-07T01:32:07.000Z,219.0
2022-09-07T01:32:42.000Z,206.0
2022-09-07T01:33:13.000Z,244.0
2022-09-07T01:33:47.000Z,225.0
2022-09-07T01:34:17.000Z,243.0
2022-09-07T01:34:57.000Z,215.0
2022-09-07T01:35:22.000Z,287.0
2022-09-07T01:35:47.000Z,182.0
2022-09-07T01:36:10.000Z,220.0
2022-09-07T01:36:39.000Z,233.0
2022-09-07T01:37:03.000Z,206.0
2022-09-07T01:37:29.000Z,223.0
2022-09-07T01:37:57.000Z,212.0
2022-09-07T01:38:20.000Z,178.0
2022-09-07T01:38:47.000Z,214.0
2022-09-07T01:39:22.000Z,224.0
2022-09-07T01:39:44.000Z,211.0
2022-09-07T01:40:07.000Z,193.0
2022-09-07T01:40:28.000Z,193.0
2022-09-07T01:40:55.000Z,217.0
2022-09-07T01:41:13.000Z,219.0
2022-09-07T01:41:47.000Z,259.0
2022-09-07T01:42:17.000Z,194.0
2022-09-07T01:42:47.000Z,188.0
2022-09-07T01:43:03.000Z,210.0
2022-09-07T01:43:23.000Z,209.0
2022-09-07T01:43:44.000Z,197.0
2022-09-07T01:44:07.000Z,210.0
2022-09-07T01:44:27.000Z,206.0
2022-09-07T01:44:49.000Z,187.0
2022-09-07T01:45:13.000Z,200.0
2022-09-07T01:45:48.000Z,198.0
2022-09-07T01:46:17.000Z,194.0
2022-09-07T01:46:47.000Z,210.0
2022-09-07T01:47:03.000Z,199.0
2022-09-07T01:47:22.000Z,162.0
2022-09-07T01:47:44.000Z,244.0
2022-09-07T01:48:07.000Z,254.0
2022-09-07T01:48:27.000Z,196.0
2022-09-07T01:48:43.000Z,201.0
2022-09-07T01:49:12.000Z,178.0
2022-09-07T01:49:57.000Z,214.0
2022-09-07T01:50:20.000Z,204.0
2022-09-07T01:50:47.000Z,254.0
2022-09-07T01:51:12.000Z,188.0
2022-09-07T01:51:39.000Z,196.0
2022-09-07T01:52:13.000Z,200.0
2022-09-07T01:52:52.000Z,188.0
2022-09-07T01:53:15.000Z,212.0
2022-09-07T01:53:43.000Z,232.0
2022-09-07T01:53:59.000Z,212.0
2022-09-07T01:54:17.000Z,200.0
2022-09-07T01:54:43.000Z,227.0
2022-09-07T01:55:08.000Z,181.0
2022-09-07T01:55:35.000Z,204.0
2022-09-07T01:56:02.000Z,204.0
2022-09-07T01:56:29.000Z,181.0
2022-09-07T01:56:52.000Z,181.0
2022-09-07T01:57:15.000Z,188.0
2022-09-07T01:57:48.000Z,174.0
2022-09-07T01:58:17.000Z,222.0
2022-09-07T01:58:47.000Z,217.0
2022-09-07T01:59:03.000Z,187.0
2022-09-07T01:59:23.000Z,196.0
2022-09-07T01:59:44.000Z,190.0
2022-09-07T02:00:07.000Z,228.0
2022-09-07T02:00:42.000Z,188.0
2022-09-07T02:01:12.000Z,174.0
2022-09-07T02:01:47.000Z,177.0
2022-09-07T02:02:18.000Z,170.0
2022-09-07T02:02:47.000Z,169.0
2022-09-07T02:03:23.000Z,172.0
2022-09-07T02:03:44.000Z,159.0
2022-09-07T02:04:07.000Z,159.0
2022-09-07T02:04:27.000Z,160.0
2022-09-07T02:04:43.000Z,165.0
2022-09-07T02:05:12.000Z,145.0
2022-09-07T02:05:48.000Z,154.0
2022-09-07T02:06:18.000Z,143.0
2022-09-07T02:06:48.000Z,154.0
2022-09-07T02:07:23.000Z,168.0
2022-09-07T02:07:44.000Z,169.0
2022-09-07T02:08:07.000Z,169.0
2022-09-07T02:08:27.000Z,178.0
2022-09-07T02:08:52.000Z,171.0
2022-09-07T02:09:12.000Z,170.0
2022-09-07T02:09:48.000Z,162.0
2022-09-07T02:10:17.000Z,162.0
2022-09-07T02:10:47.000Z,187.0
2022-09-07T02:11:03.000Z,178.0
2022-09-07T02:11:22.000Z,182.0
2022-09-07T02:11:44.000Z,167.0
2022-09-07T02:12:07.000Z,194.0
2022-09-07T02:12:29.000Z,183.0
2022-09-07T02:12:57.000Z,175.0
2022-09-07T02:13:27.000Z,154.0
2022-09-07T02:14:02.000Z,171.0
2022-09-07T02:14:32.000Z,138.0
2022-09-07T02:15:03.000Z,154.0
2022-09-07T02:15:23.000Z,158.0
2022-09-07T02:15:44.000Z,147.0
2022-09-07T02:16:08.000Z,155.0
2022-09-07T02:16:28.000Z,185.0
2022-09-07T02:16:57.000Z,147.0
2022-09-07T02:17:27.000Z,185.0
2022-09-07T02:18:02.000Z,169.0
2022-09-07T02:18:32.000Z,174.0
2022-09-07T02:19:03.000Z,189.0
2022-09-07T02:19:22.000Z,159.0
2022-09-07T02:19:44.000Z,178.0
2022-09-07T02:20:17.000Z,169.0
2022-09-07T02:20:44.000Z,167.0
2022-09-07T02:21:11.000Z,168.0
2022-09-07T02:21:37.000Z,166.0
2022-09-07T02:22:11.000Z,165.0
2022-09-07T02:22:34.000Z,165.0
2022-09-07T02:23:03.000Z,168.0
2022-09-07T02:23:32.000Z,168.0
2022-09-07T02:24:02.000Z,186.0
2022-09-07T02:24:28.000Z,188.0
2022-09-07T02:24:52.000Z,189.0
2022-09-07T02:25:16.000Z,186.0
2022-09-07T02:25:47.000Z,170.0
2022-09-07T02:26:17.000Z,173.0
2022-09-07T02:26:47.000Z,173.0
2022-09-07T02:27:03.000Z,190.0
2022-09-07T02:27:22.000Z,194.0
2022-09-07T02:27:44.000Z,193.0
2022-09-07T02:28:07.000Z,198.0
2022-09-07T02:28:28.000Z,166.0
2022-09-07T02:28:57.000Z,179.0
2022-09-07T02:29:27.000Z,175.0
2022-09-07T02:30:02.000Z,173.0
2022-09-07T02:30:32.000Z,173.0
2022-09-07T02:31:03.000Z,172.0
2022-09-07T02:31:23.000Z,173.0
2022-09-07T02:31:44.000Z,173.0
2022-09-07T02:32:07.000Z,165.0
2022-09-07T02:32:43.000Z,165.0
2022-09-07T02:33:12.000Z,164.0
2022-09-07T02:33:48.000Z,164.0
2022-09-07T02:34:18.000Z,162.0
2022-09-07T02:34:47.000Z,162.0
2022-09-07T02:35:03.000Z,162.0
2022-09-07T02:35:22.000Z,162.0
2022-09-07T02:35:44.000Z,162.0
2022-09-07T02:36:07.000Z,161.0
2022-09-07T02:36:28.000Z,162.0
2022-09-07T02:36:52.000Z,162.0
2022-09-07T02:37:15.000Z,133.0
2022-09-07T02:37:47.000Z,126.0
2022-09-07T02:38:18.000Z,167.0
2022-09-07T02:38:47.000Z,165.0
2022-09-07T02:39:03.000Z,141.0
2022-09-07T02:39:23.000Z,145.0
2022-09-07T02:39:44.000Z,159.0
2022-09-07T02:40:07.000Z,155.0
2022-09-07T02:40:28.000Z,153.0
2022-09-07T02:40:58.000Z,161.0
2022-09-07T02:41:27.000Z,159.0
2022-09-07T02:42:02.000Z,141.0
2022-09-07T02:42:32.000Z,161.0
2022-09-07T02:43:03.000Z,153.0
2022-09-07T02:43:23.000Z,140.0
2022-09-07T02:43:44.000Z,153.0
2022-09-07T02:44:07.000Z,150.0
2022-09-07T02:44:43.000Z,112.0
2022-09-07T02:45:12.000Z,175.0
2022-09-07T02:45:48.000Z,165.0
2022-09-07T02:46:17.000Z,157.0
2022-09-07T02:46:48.000Z,154.0
2022-09-07T02:47:22.000Z,154.0
2022-09-07T02:47:44.000Z,141.0
2022-09-07T02:48:07.000Z,179.0
2022-09-07T02:48:52.000Z,164.0
2022-09-07T02:49:11.000Z,194.0
2022-09-07T02:49:47.000Z,153.0
2022-09-07T02:50:17.000Z,198.0
2022-09-07T02:50:47.000Z,136.0
2022-09-07T02:51:23.000Z,159.0
2022-09-07T02:51:44.000Z,178.0
2022-09-07T02:52:08.000Z,142.0
2022-09-07T02:52:43.000Z,166.0
2022-09-07T02:53:12.000Z,158.0
2022-09-07T02:53:48.000Z,157.0
2022-09-07T02:54:18.000Z,156.0
2022-09-07T02:54:48.000Z,171.0
2022-09-07T02:55:23.000Z,170.0
2022-09-07T02:55:44.000Z,160.0
2022-09-07T02:56:07.000Z,148.0
2022-09-07T02:56:42.000Z,150.0
2022-09-07T02:57:13.000Z,168.0
2022-09-07T02:57:48.000Z,138.0
2022-09-07T02:58:18.000Z,159.0
2022-09-07T02:58:48.000Z,148.0
2022-09-07T02:59:22.000Z,167.0
2022-09-07T02:59:44.000Z,167.0
2022-09-07T03:00:07.000Z,168.0
2022-09-07T03:00:39.000Z,168.0
2022-09-07T03:01:03.000Z,168.0
2022-09-07T03:01:28.000Z,165.0
2022-09-07T03:01:57.000Z,7.0
2022-09-07T03:02:18.000Z,192.0
2022-09-07T03:02:47.000Z,148.0
2022-09-07T03:03:23.000Z,150.0
2022-09-07T03:03:44.000Z,173.0
2022-09-07T03:04:07.000Z,151.0
2022-09-07T03:04:28.000Z,164.0
2022-09-07T03:04:57.000Z,169.0
2022-09-07T03:05:27.000Z,161.0
2022-09-07T03:05:48.000Z,161.0
2022-09-07T03:06:18.000Z,159.0
2022-09-07T03:06:47.000Z,153.0
2022-09-07T03:07:03.000Z,131.0
2022-09-07T03:07:22.000Z,153.0
2022-09-07T03:07:44.000Z,150.0
2022-09-07T03:08:07.000Z,165.0
2022-09-07T03:08:28.000Z,105.0
2022-09-07T03:08:57.000Z,153.0
2022-09-07T03:09:27.000Z,166.0
2022-09-07T03:09:48.000Z,166.0
2022-09-07T03:10:18.000Z,159.0
2022-09-07T03:10:47.000Z,162.0
2022-09-07T03:11:03.000Z,162.0
2022-09-07T03:11:23.000Z,163.0
2022-09-07T03:11:44.000Z,163.0
2022-09-07T03:12:07.000Z,161.0
2022-09-07T03:12:28.000Z,158.0
2022-09-07T03:12:57.000Z,105.0
2022-09-07T03:13:32.000Z,130.0
2022-09-07T03:14:02.000Z,192.0
2022-09-07T03:14:32.000Z,192.0
2022-09-07T03:15:03.000Z,192.0
2022-09-07T03:15:22.000Z,191.0
2022-09-07T03:15:44.000Z,191.0
2022-09-07T03:16:07.000Z,235.0
2022-09-07T03:16:42.000Z,227.0
2022-09-07T03:17:12.000Z,233.0
2022-09-07T03:17:48.000Z,218.0
2022-09-07T03:18:18.000Z,208.0
2022-09-07T03:18:47.000Z,207.0
2022-09-07T03:19:22.000Z,207.0
2022-09-07T03:19:44.000Z,211.0
2022-09-07T03:20:07.000Z,196.0
2022-09-07T03:20:28.000Z,205.0
2022-09-07T03:20:57.000Z,215.0
2022-09-07T03:21:27.000Z,232.0
2022-09-07T03:22:02.000Z,243.0
2022-09-07T03:22:33.000Z,236.0
2022-09-07T03:22:48.000Z,236.0
2022-09-07T03:23:22.000Z,235.0
2022-09-07T03:23:45.000Z,235.0
2022-09-07T03:24:07.000Z,235.0
2022-09-07T03:24:28.000Z,235.0
2022-09-07T03:24:43.000Z,235.0
2022-09-07T03:25:22.000Z,235.0
2022-09-07T03:25:49.000Z,235.0
2022-09-07T03:26:20.000Z,235.0
2022-09-07T03:26:47.000Z,235.0
2022-09-07T03:27:22.000Z,235.0
2022-09-07T03:27:45.000Z,235.0
2022-09-07T03:28:12.000Z,235.0
2022-09-07T03:28:52.000Z,235.0
2022-09-07T03:29:15.000Z,235.0
2022-09-07T03:29:43.000Z,235.0
2022-09-07T03:29:59.000Z,235.0
2022-09-07T03:30:42.000Z,235.0
2022-09-07T03:31:09.000Z,235.0
2022-09-07T03:31:37.000Z,235.0
2022-09-07T03:32:07.000Z,235.0
2022-09-07T03:32:42.000Z,235.0
2022-09-07T03:33:12.000Z,235.0
2022-09-07T03:33:48.000Z,235.0
2022-09-07T03:34:18.000Z,235.0
2022-09-07T03:34:47.000Z,235.0
2022-09-07T03:35:23.000Z,235.0
2022-09-07T03:35:44.000Z,235.0
2022-09-07T03:36:07.000Z,235.0
2022-09-07T03:36:42.000Z,235.0
2022-09-07T03:37:12.000Z,235.0
2022-09-07T03:37:48.000Z,235.0
2022-09-07T03:38:18.000Z,235.0
2022-09-07T03:38:47.000Z,235.0
2022-09-07T03:39:22.000Z,235.0
2022-09-07T03:39:44.000Z,235.0
2022-09-07T03:40:07.000Z,235.0
2022-09-07T03:40:42.000Z,235.0
2022-09-07T03:41:12.000Z,235.0
2022-09-07T03:41:47.000Z,235.0
2022-09-07T03:42:17.000Z,235.0
2022-09-07T03:42:57.000Z,235.0
2022-09-07T03:43:22.000Z,235.0
2022-09-07T03:43:47.000Z,235.0
2022-09-07T03:44:10.000Z,235.0
2022-09-07T03:44:42.000Z,235.0
2022-09-07T03:45:12.000Z,235.0
2022-09-07T03:45:47.000Z,235.0
2022-09-07T03:46:17.000Z,235.0
2022-09-07T03:46:47.000Z,238.0
2022-09-07T03:47:03.000Z,272.0
2022-09-07T03:47:23.000Z,285.0
2022-09-07T03:47:44.000Z,321.0
2022-09-07T03:48:08.000Z,353.0
2022-09-07T03:48:42.000Z,350.0
2022-09-07T03:49:12.000Z,346.0
2022-09-07T03:49:48.000Z,344.0
2022-09-07T03:50:18.000Z,340.0
2022-09-07T03:50:47.000Z,340.0
2022-09-07T03:51:19.000Z,340.0
2022-09-07T03:51:38.000Z,340.0
2022-09-07T03:52:07.000Z,341.0
2022-09-07T03:52:42.000Z,359.0
2022-09-07T03:53:13.000Z,8.0
2022-09-07T03:53:47.000Z,10.0
2022-09-07T03:54:17.000Z,20.0
2022-09-07T03:54:47.000Z,18.0
2022-09-07T03:55:22.000Z,342.0
2022-09-07T03:55:47.000Z,342.0
2022-09-07T03:56:07.000Z,30.0
2022-09-07T03:56:28.000Z,39.0
2022-09-07T03:56:57.000Z,31.0
2022-09-07T03:57:27.000Z,33.0
2022-09-07T03:58:02.000Z,35.0
2022-09-07T03:58:32.000Z,36.0
2022-09-07T03:59:03.000Z,36.0
2022-09-07T03:59:23.000Z,36.0
2022-09-07T03:59:44.000Z,36.0
2022-09-07T04:00:07.000Z,36.0
2022-09-07T04:00:28.000Z,36.0
2022-09-07T04:00:58.000Z,38.0
2022-09-07T04:01:28.000Z,39.0
2022-09-07T04:02:02.000Z,39.0
2022-09-07T04:02:32.000Z,39.0
2022-09-07T04:03:03.000Z,39.0
2022-09-07T04:03:23.000Z,39.0
2022-09-07T04:03:44.000Z,39.0
2022-09-07T04:04:07.000Z,39.0
2022-09-07T04:04:42.000Z,39.0
2022-09-07T04:05:12.000Z,39.0
2022-09-07T04:05:48.000Z,39.0
2022-09-07T04:06:18.000Z,39.0
2022-09-07T04:06:47.000Z,39.0
2022-09-07T04:07:22.000Z,39.0
2022-09-07T04:07:44.000Z,38.0
2022-09-07T04:08:07.000Z,38.0
2022-09-07T04:08:42.000Z,38.0
2022-09-07T04:09:12.000Z,38.0
2022-09-07T04:09:47.000Z,38.0
2022-09-07T04:10:17.000Z,38.0
2022-09-07T04:10:47.000Z,39.0
2022-09-07T04:11:23.000Z,38.0
2022-09-07T04:11:44.000Z,39.0
2022-09-07T04:12:07.000Z,38.0
2022-09-07T04:12:42.000Z,38.0
2022-09-07T04:13:12.000Z,38.0
2022-09-07T04:13:48.000Z,38.0
2022-09-07T04:14:18.000Z,38.0
2022-09-07T04:14:47.000Z,35.0
2022-09-07T04:15:23.000Z,32.0
2022-09-07T04:15:44.000Z,33.0
2022-09-07T04:16:07.000Z,32.0
2022-09-07T04:16:43.000Z,32.0
2022-09-07T04:17:12.000Z,24.0
2022-09-07T04:17:48.000Z,25.0
2022-09-07T04:18:27.000Z,25.0
2022-09-07T04:18:48.000Z,25.0
2022-09-07T04:19:22.000Z,25.0
2022-09-07T04:19:44.000Z,25.0
2022-09-07T04:20:07.000Z,25.0
2022-09-07T04:20:42.000Z,25.0
2022-09-07T04:21:13.000Z,25.0
2022-09-07T04:21:47.000Z,25.0
2022-09-07T04:22:17.000Z,25.0
2022-09-07T04:22:47.000Z,25.0
2022-09-07T04:23:22.000Z,25.0
2022-09-07T04:23:44.000Z,25.0
2022-09-07T04:24:07.000Z,25.0
2022-09-07T04:24:42.000Z,25.0
2022-09-07T04:25:12.000Z,25.0
2022-09-07T04:25:48.000Z,25.0
2022-09-07T04:26:18.000Z,25.0
2022-09-07T04:26:47.000Z,25.0
2022-09-07T04:27:22.000Z,25.0
2022-09-07T04:27:44.000Z,25.0
2022-09-07T04:28:07.000Z,25.0
2022-09-07T04:28:43.000Z,25.0
2022-09-07T04:29:12.000Z,25.0
2022-09-07T04:29:57.000Z,26.0
2022-09-07T04:30:20.000Z,25.0
2022-09-07T04:30:47.000Z,26.0
2022-09-07T04:31:22.000Z,26.0
2022-09-07T04:31:46.000Z,26.0
2022-09-07T04:32:12.000Z,26.0
2022-09-07T04:32:52.000Z,26.0
2022-09-07T04:33:15.000Z,26.0
2022-09-07T04:33:43.000Z,26.0
2022-09-07T04:33:59.000Z,26.0
2022-09-07T04:34:17.000Z,26.0
2022-09-07T04:34:43.000Z,26.0
2022-09-07T04:35:09.000Z,26.0
2022-09-07T04:35:35.000Z,26.0
2022-09-07T04:36:12.000Z,26.0
2022-09-07T04:36:52.000Z,26.0
2022-09-07T04:37:15.000Z,26.0
2022-09-07T04:37:43.000Z,26.0
2022-09-07T04:37:59.000Z,26.0
2022-09-07T04:38:32.000Z,26.0
2022-09-07T04:39:03.000Z,26.0
2022-09-07T04:39:22.000Z,26.0
2022-09-07T04:39:44.000Z,26.0
2022-09-07T04:40:08.000Z,26.0
2022-09-07T04:40:42.000Z,26.0
2022-09-07T04:41:12.000Z,26.0
2022-09-07T04:41:47.000Z,26.0
2022-09-07T04:42:18.000Z,26.0
2022-09-07T04:42:47.000Z,25.0
2022-09-07T04:43:23.000Z,25.0
2022-09-07T04:43:44.000Z,25.0
2022-09-07T04:44:07.000Z,25.0
2022-09-07T04:44:43.000Z,26.0
2022-09-07T04:45:12.000Z,26.0
2022-09-07T04:45:48.000Z,26.0
2022-09-07T04:46:17.000Z,26.0
2022-09-07T04:46:48.000Z,26.0
2022-09-07T04:47:23.000Z,26.0
2022-09-07T04:47:44.000Z,26.0
2022-09-07T04:48:07.000Z,26.0
2022-09-07T04:48:42.000Z,26.0
2022-09-07T04:49:13.000Z,26.0
2022-09-07T04:49:48.000Z,26.0
2022-09-07T04:50:17.000Z,26.0
2022-09-07T04:50:47.000Z,26.0
2022-09-07T04:51:23.000Z,26.0
2022-09-07T04:51:44.000Z,26.0
2022-09-07T04:52:07.000Z,26.0
2022-09-07T04:52:43.000Z,26.0
2022-09-07T04:53:12.000Z,26.0
2022-09-07T04:53:48.000Z,26.0
2022-09-07T04:54:17.000Z,26.0
2022-09-07T04:54:47.000Z,26.0
2022-09-07T04:55:23.000Z,26.0
2022-09-07T04:55:44.000Z,26.0
2022-09-07T04:56:07.000Z,26.0
2022-09-07T04:56:42.000Z,26.0
2022-09-07T04:57:12.000Z,26.0
2022-09-07T04:57:47.000Z,26.0
2022-09-07T04:58:17.000Z,26.0
2022-09-07T04:58:47.000Z,26.0
2022-09-07T04:59:22.000Z,26.0
2022-09-07T04:59:44.000Z,26.0
2022-09-07T05:00:07.000Z,26.0
2022-09-07T05:00:43.000Z,26.0
2022-09-07T05:01:12.000Z,26.0
2022-09-07T05:01:48.000Z,26.0
2022-09-07T05:02:17.000Z,26.0
2022-09-07T05:02:48.000Z,26.0
2022-09-07T05:03:22.000Z,26.0
2022-09-07T05:03:44.000Z,26.0
2022-09-07T05:04:07.000Z,26.0
2022-09-07T05:04:27.000Z,26.0
2022-09-07T05:04:56.000Z,26.0
2022-09-07T05:05:27.000Z,26.0
2022-09-07T05:06:02.000Z,26.0
2022-09-07T05:06:32.000Z,26.0
2022-09-07T05:07:19.000Z,26.0
2022-09-07T05:07:37.000Z,26.0
2022-09-07T05:08:07.000Z,26.0
2022-09-07T05:08:28.000Z,26.0
2022-09-07T05:08:57.000Z,26.0
2022-09-07T05:09:27.000Z,26.0
2022-09-07T05:09:47.000Z,26.0
2022-09-07T05:10:17.000Z,26.0
2022-09-07T05:10:47.000Z,26.0
2022-09-07T05:11:03.000Z,26.0
2022-09-07T05:11:22.000Z,26.0
2022-09-07T05:11:44.000Z,26.0
2022-09-07T05:12:09.000Z,26.0
2022-09-07T05:12:39.000Z,26.0
2022-09-07T05:13:04.000Z,26.0
2022-09-07T05:13:28.000Z,26.0
2022-09-07T05:14:03.000Z,26.0
2022-09-07T05:14:32.000Z,26.0
2022-09-07T05:15:03.000Z,26.0
2022-09-07T05:15:22.000Z,26.0
2022-09-07T05:15:44.000Z,26.0
2022-09-07T05:16:07.000Z,26.0
2022-09-07T05:16:42.000Z,26.0
2022-09-07T05:17:12.000Z,26.0
2022-09-07T05:17:47.000Z,26.0
2022-09-07T05:18:17.000Z,26.0
2022-09-07T05:18:47.000Z,26.0
2022-09-07T05:19:23.000Z,26.0
2022-09-07T05:19:44.000Z,26.0
2022-09-07T05:20:08.000Z,26.0
2022-09-07T05:20:27.000Z,26.0
2022-09-07T05:20:55.000Z,26.0
2022-09-07T05:21:28.000Z,26.0
2022-09-07T05:22:02.000Z,26.0
2022-09-07T05:22:32.000Z,26.0
2022-09-07T05:23:03.000Z,26.0
2022-09-07T05:23:22.000Z,26.0
2022-09-07T05:23:44.000Z,26.0
2022-09-07T05:24:07.000Z,26.0
2022-09-07T05:24:52.000Z,26.0
2022-09-07T05:25:15.000Z,26.0
2022-09-07T05:25:47.000Z,26.0
2022-09-07T05:26:18.000Z,26.0
2022-09-07T05:26:47.000Z,26.0
2022-09-07T05:27:22.000Z,26.0
2022-09-07T05:27:44.000Z,26.0
2022-09-07T05:28:07.000Z,26.0
2022-09-07T05:28:43.000Z,26.0
2022-09-07T05:29:12.000Z,26.0
2022-09-07T05:29:47.000Z,26.0
2022-09-07T05:30:17.000Z,26.0
2022-09-07T05:30:43.000Z,26.0
2022-09-07T05:31:07.000Z,26.0
2022-09-07T05:31:44.000Z,26.0
2022-09-07T05:32:07.000Z,26.0
2022-09-07T05:32:42.000Z,26.0
2022-09-07T05:33:12.000Z,26.0
2022-09-07T05:33:47.000Z,26.0
2022-09-07T05:34:18.000Z,21.0
2022-09-07T05:35:03.000Z,351.0
2022-09-07T05:35:23.000Z,290.0
2022-09-07T05:35:44.000Z,266.0
2022-09-07T05:36:07.000Z,265.0
2022-09-07T05:36:44.000Z,265.0
2022-09-07T05:37:12.000Z,265.0
2022-09-07T05:37:47.000Z,265.0
2022-09-07T05:38:15.000Z,265.0
2022-09-07T05:38:42.000Z,265.0
2022-09-07T05:39:08.000Z,266.0
2022-09-07T05:39:35.000Z,266.0
2022-09-07T05:40:02.000Z,338.0
2022-09-07T05:40:29.000Z,337.0
2022-09-07T05:40:52.000Z,336.0
2022-09-07T05:41:15.000Z,336.0
2022-09-07T05:41:48.000Z,336.0
2022-09-07T05:42:18.000Z,336.0
2022-09-07T05:42:47.000Z,335.0
2022-09-07T05:43:23.000Z,326.0
2022-09-07T05:43:44.000Z,326.0
2022-09-07T05:44:07.000Z,320.0
2022-09-07T05:44:43.000Z,319.0
2022-09-07T05:45:12.000Z,267.0
2022-09-07T05:45:48.000Z,266.0
2022-09-07T05:46:18.000Z,266.0
2022-09-07T05:46:47.000Z,266.0
2022-09-07T05:47:23.000Z,266.0
2022-09-07T05:47:44.000Z,266.0
2022-09-07T05:48:07.000Z,266.0
2022-09-07T05:48:42.000Z,266.0
2022-09-07T05:49:12.000Z,266.0
2022-09-07T05:49:47.000Z,266.0
2022-09-07T05:50:18.000Z,266.0
2022-09-07T05:50:47.000Z,266.0
2022-09-07T05:51:23.000Z,266.0
2022-09-07T05:51:45.000Z,266.0
2022-09-07T05:52:08.000Z,266.0
2022-09-07T05:52:39.000Z,266.0
2022-09-07T05:52:55.000Z,266.0
2022-09-07T05:53:13.000Z,266.0
2022-09-07T05:53:47.000Z,266.0
2022-09-07T05:54:18.000Z,265.0
2022-09-07T05:54:47.000Z,265.0
2022-09-07T05:55:23.000Z,265.0
2022-09-07T05:55:44.000Z,265.0
2022-09-07T05:56:07.000Z,265.0
2022-09-07T05:56:43.000Z,265.0
2022-09-07T05:57:12.000Z,265.0
2022-09-07T05:57:48.000Z,265.0
2022-09-07T05:58:18.000Z,265.0
2022-09-07T05:58:47.000Z,265.0
2022-09-07T05:59:03.000Z,265.0
2022-09-07T05:59:22.000Z,265.0
2022-09-07T05:59:44.000Z,265.0
2022-09-07T06:00:07.000Z,265.0
2022-09-07T06:00:27.000Z,265.0
2022-09-07T06:00:49.000Z,265.0
2022-09-07T06:01:12.000Z,265.0
2022-09-07T06:01:47.000Z,265.0
2022-09-07T06:02:17.000Z,265.0
2022-09-07T06:02:47.000Z,265.0
2022-09-07T06:03:03.000Z,265.0